Aérodrome :
LOGIN :

S'inscrire | Disclaimer

   EN    FR    IT 

 










Légende :    VFR   VFR Marginal   IFR   IFR Intensif   IFR Très Intensif
Visi : 
Plafond : 
>= 8 km
>= 3000ft
5 à 8 km
1000 à 3000 ft
1500m à 5 km
500 à 1000 ft
800 à 1500m
200 à 500 ft
< 800m
< 200 ft
Symboles :   Orages  Brouillard  Fortes neiges  Fortes précipitations  Vent > 20 kt
SIGMETs :   Divers  Orages  Givrage  Turbulence  Onde Orograph.  Cendres Volcan.






- Altitude de l'aérodrome : 502 ft
- Code IATA : ORK


EICK - Cork

DERNIER METAR :
  • 211130Z 21004KT 170V280 9999 FEW025 18/12 Q1018 NOSIG

METARs EXPIRÉS :
  • 211100Z 20004KT 160V250 9999 FEW025 18/12 Q1018 NOSIG
  • 211030Z VRB03KT CAVOK 17/12 Q1018 NOSIG
  • 211000Z VRB02KT CAVOK 16/11 Q1018 NOSIG
  • 210930Z VRB02KT CAVOK 16/11 Q1018 NOSIG
  • 210900Z VRB03KT CAVOK 14/11 Q1019 NOSIG

TAF TAF EICK
Valide du 21 à 12h jusqu'au 22 à 12h UTC


211100Z 2112/2212 VRB03KT 9999 FEW018
BECMG 2112/2114 20010KT
BECMG 2119/2121 32006KT
BECMG 2123/2201 22010KT
BECMG 2201/2203 BKN010
PROB40
TEMPO 2205/2210 4000 BR BKN005
BECMG 2210/2212 22015G25KT FEW010 BKN018



MET'MAP, la Météo Aéronautique d'un coup d'oeil ! - Copyright ORBIFLY Décembre 2007 - Disclaimer

ORBIFLY MET'MAP TEAM :

Programmation & Développement : Alexandra Zaïnal
Sur une idée originale de : Baudouin d'Aumeries
Assistance à la programmation : Marc-Olivier Méhu
Soutien technique & logistique : Manuel Goepfert

Contact : metmap@orbifly.com




SOURCES & CREDITS :

   NOAA